createdAt,value
2018-05-13T00:01:48.178Z,14.90
2018-05-13T00:04:15.626Z,15.00
2018-05-13T00:06:43.087Z,15.00
2018-05-13T00:09:10.545Z,15.00
2018-05-13T00:11:37.994Z,15.00
2018-05-13T00:14:05.447Z,15.00
2018-05-13T00:16:32.912Z,14.90
2018-05-13T00:19:00.354Z,14.90
2018-05-13T00:21:28.379Z,15.00
2018-05-13T00:23:55.819Z,15.00
2018-05-13T00:26:23.269Z,15.00
2018-05-13T00:28:50.713Z,15.00
2018-05-13T00:31:19.014Z,14.90
2018-05-13T00:33:46.470Z,14.60
2018-05-13T00:36:13.911Z,14.70
2018-05-13T00:38:41.380Z,14.70
2018-05-13T00:41:08.835Z,14.70
2018-05-13T00:43:36.290Z,14.70
2018-05-13T00:46:03.738Z,14.60
2018-05-13T00:48:31.182Z,14.50
2018-05-13T00:50:58.643Z,14.50
2018-05-13T00:53:26.095Z,14.40
2018-05-13T00:55:53.554Z,14.20
2018-05-13T00:58:21.066Z,14.20
2018-05-13T01:00:49.279Z,14.20
2018-05-13T01:03:16.741Z,14.20
2018-05-13T01:05:44.198Z,14.00
2018-05-13T01:08:11.666Z,14.10
2018-05-13T01:10:39.118Z,14.10
2018-05-13T01:13:06.574Z,14.00
2018-05-13T01:15:34.026Z,13.90
2018-05-13T01:18:01.482Z,13.90
2018-05-13T01:20:29.269Z,13.90
2018-05-13T01:22:56.725Z,13.90
2018-05-13T01:25:24.172Z,13.80
2018-05-13T01:27:51.619Z,13.70
2018-05-13T01:30:19.062Z,13.80
2018-05-13T01:32:46.527Z,13.80
2018-05-13T01:35:13.970Z,13.70
2018-05-13T01:37:41.439Z,13.70
2018-05-13T01:40:09.639Z,13.80
2018-05-13T01:42:37.095Z,13.70
2018-05-13T01:45:05.262Z,13.70
2018-05-13T01:47:32.714Z,13.60
2018-05-13T01:50:00.591Z,13.50
2018-05-13T01:52:28.045Z,13.40
2018-05-13T01:54:55.490Z,13.30
2018-05-13T01:57:22.935Z,13.10
2018-05-13T01:59:50.634Z,13.10
2018-05-13T02:02:18.488Z,13.10
2018-05-13T02:04:45.941Z,13.00
2018-05-13T02:07:13.396Z,12.90
2018-05-13T02:09:40.851Z,12.90
2018-05-13T02:12:08.303Z,12.90
2018-05-13T02:14:35.765Z,12.90
2018-05-13T02:17:03.218Z,13.00
2018-05-13T02:19:30.683Z,13.10
2018-05-13T02:21:58.134Z,13.20
2018-05-13T02:24:25.590Z,13.10
2018-05-13T02:26:53.047Z,13.00
2018-05-13T02:29:20.500Z,13.00
2018-05-13T02:31:47.952Z,13.00
2018-05-13T02:34:15.414Z,13.00
2018-05-13T02:36:42.874Z,13.10
2018-05-13T02:39:10.347Z,13.10
2018-05-13T02:41:38.258Z,13.10
2018-05-13T02:44:06.479Z,12.90
2018-05-13T02:46:33.949Z,12.90
2018-05-13T02:49:01.399Z,12.90
2018-05-13T02:51:28.856Z,12.80
2018-05-13T02:53:56.312Z,12.80
2018-05-13T02:56:23.758Z,12.90
2018-05-13T02:58:51.209Z,12.90
2018-05-13T03:01:18.657Z,12.90
2018-05-13T03:03:46.118Z,12.90
2018-05-13T03:06:13.560Z,12.80
2018-05-13T03:08:41.007Z,12.90
2018-05-13T03:11:09.230Z,13.00
2018-05-13T03:13:36.675Z,13.00
2018-05-13T03:16:04.959Z,12.90
2018-05-13T03:18:32.428Z,12.90
2018-05-13T03:21:00.351Z,12.90
2018-05-13T03:23:28.581Z,13.00
2018-05-13T03:25:56.022Z,13.00
2018-05-13T03:28:23.479Z,13.20
2018-05-13T03:30:51.139Z,13.20
2018-05-13T03:33:18.605Z,13.30
2018-05-13T03:35:46.057Z,13.10
2018-05-13T03:38:13.503Z,13.20
2018-05-13T03:40:40.972Z,13.30
2018-05-13T03:43:08.410Z,13.20
2018-05-13T03:45:35.871Z,13.10
2018-05-13T03:48:03.325Z,13.30
2018-05-13T03:50:30.782Z,13.50
2018-05-13T03:52:58.225Z,13.60
2018-05-13T03:55:26.514Z,13.70
2018-05-13T03:57:53.974Z,13.70
2018-05-13T04:00:21.426Z,13.60
2018-05-13T04:02:48.898Z,13.90
2018-05-13T04:05:16.348Z,13.90
2018-05-13T04:08:07.573Z,13.90
2018-05-13T04:10:46.863Z,14.10
2018-05-13T04:13:26.862Z,14.60
2018-05-13T04:15:54.306Z,14.60
2018-05-13T04:18:21.815Z,14.80
2018-05-13T04:20:50.117Z,14.90
2018-05-13T04:23:18.546Z,14.90
2018-05-13T04:25:45.989Z,14.70
2018-05-13T04:28:13.453Z,14.80
2018-05-13T04:30:41.407Z,14.90
2018-05-13T04:33:08.851Z,15.00
2018-05-13T04:35:36.310Z,15.00
2018-05-13T04:38:03.763Z,15.00
2018-05-13T04:40:31.219Z,15.00
2018-05-13T04:42:58.672Z,15.20
2018-05-13T04:45:26.122Z,15.40
2018-05-13T04:47:53.561Z,15.40
2018-05-13T04:50:22.072Z,15.30
2018-05-13T04:52:49.525Z,15.30
2018-05-13T04:55:16.979Z,15.30
2018-05-13T04:57:44.906Z,15.30
2018-05-13T05:00:12.353Z,15.50
2018-05-13T05:02:39.802Z,15.80
2018-05-13T05:05:07.253Z,16.00
2018-05-13T05:07:34.698Z,16.20
2018-05-13T05:10:02.148Z,15.90
2018-05-13T05:12:30.054Z,15.80
2018-05-13T05:14:57.505Z,16.00
2018-05-13T05:17:24.979Z,16.20
2018-05-13T05:19:53.206Z,16.60
2018-05-13T05:22:20.646Z,16.60
2018-05-13T05:24:48.161Z,16.80
2018-05-13T05:27:15.608Z,17.10
2018-05-13T05:29:43.070Z,16.60
2018-05-13T05:32:10.519Z,16.40
2018-05-13T05:34:37.966Z,16.40
2018-05-13T05:37:05.415Z,16.80
2018-05-13T05:39:32.875Z,17.20
2018-05-13T05:42:00.330Z,17.70
2018-05-13T05:44:27.787Z,18.20
2018-05-13T05:46:55.243Z,18.80
2018-05-13T05:49:22.677Z,19.10
2018-05-13T05:51:50.129Z,18.90
2018-05-13T05:54:17.566Z,19.20
2018-05-13T05:56:45.027Z,19.40
2018-05-13T05:59:12.478Z,19.70
2018-05-13T06:01:40.681Z,19.90
2018-05-13T06:04:08.147Z,19.90
2018-05-13T06:06:35.594Z,19.90
2018-05-13T06:09:03.054Z,20.00
2018-05-13T06:11:30.503Z,20.00
2018-05-13T06:13:57.996Z,19.90
2018-05-13T06:16:25.447Z,19.60
2018-05-13T06:18:52.893Z,19.30
2018-05-13T06:21:20.358Z,19.10
2018-05-13T06:23:47.821Z,19.00
2018-05-13T06:26:15.274Z,19.00
2018-05-13T06:28:42.735Z,19.00
2018-05-13T06:31:10.207Z,19.20
2018-05-13T06:33:37.672Z,19.30
2018-05-13T06:36:05.131Z,19.20
2018-05-13T06:38:32.582Z,19.40
2018-05-13T06:41:00.024Z,19.60
2018-05-13T06:43:27.490Z,19.90
2018-05-13T06:45:54.942Z,20.30
2018-05-13T06:48:22.416Z,20.50
2018-05-13T06:50:49.884Z,20.80
2018-05-13T06:53:17.670Z,21.20
2018-05-13T06:55:45.118Z,21.70
2018-05-13T06:58:12.579Z,22.00
2018-05-13T07:00:40.032Z,22.40
2018-05-13T07:03:08.336Z,22.60
2018-05-13T07:05:35.791Z,22.60
2018-05-13T07:08:03.246Z,23.00
2018-05-13T07:10:30.707Z,23.20
2018-05-13T07:12:58.168Z,23.40
2018-05-13T07:15:25.622Z,23.40
2018-05-13T07:17:53.101Z,23.40
2018-05-13T07:20:20.548Z,23.30
2018-05-13T07:22:48.013Z,23.20
2018-05-13T07:25:15.476Z,23.40
2018-05-13T07:27:43.686Z,24.60
2018-05-13T07:30:12.546Z,25.00
2018-05-13T07:32:40.014Z,25.00
2018-05-13T07:35:07.456Z,25.20
2018-05-13T07:37:35.675Z,25.50
2018-05-13T07:40:03.905Z,25.60
2018-05-13T07:42:31.367Z,25.50
2018-05-13T07:44:58.819Z,25.70
2018-05-13T07:47:26.278Z,25.80
2018-05-13T07:49:53.718Z,25.80
2018-05-13T07:52:21.178Z,25.70
2018-05-13T07:54:48.673Z,25.70
2018-05-13T07:57:16.095Z,25.50
2018-05-13T07:59:43.555Z,25.60
2018-05-13T08:02:11.010Z,25.40
2018-05-13T08:04:38.470Z,25.00
2018-05-13T08:07:05.926Z,24.60
2018-05-13T08:09:33.391Z,24.30
2018-05-13T08:12:01.339Z,24.00
2018-05-13T08:14:28.793Z,23.80
2018-05-13T08:16:56.294Z,23.80
2018-05-13T08:19:23.749Z,23.40
2018-05-13T08:21:51.206Z,22.50
2018-05-13T08:24:19.073Z,21.50
2018-05-13T08:26:46.538Z,20.80
2018-05-13T08:29:14.771Z,20.00
2018-05-13T08:31:42.674Z,20.00
2018-05-13T08:34:10.138Z,19.70
2018-05-13T08:36:37.575Z,19.50
2018-05-13T08:39:05.929Z,19.30
2018-05-13T08:41:33.382Z,18.90
2018-05-13T08:44:00.930Z,18.50
2018-05-13T08:46:28.370Z,18.40
2018-05-13T08:48:55.841Z,18.10
2018-05-13T08:51:23.763Z,17.70
2018-05-13T08:53:51.217Z,17.50
2018-05-13T08:56:19.578Z,17.30
2018-05-13T08:58:47.029Z,17.10
2018-05-13T09:01:14.526Z,16.80
2018-05-13T09:03:43.047Z,16.40
2018-05-13T09:06:10.503Z,16.40
2018-05-13T09:08:37.943Z,16.10
2018-05-13T09:11:05.419Z,16.00
2018-05-13T09:13:32.872Z,15.90
2018-05-13T09:16:00.314Z,16.00
2018-05-13T09:18:27.769Z,16.10
2018-05-13T09:20:55.256Z,16.10
2018-05-13T09:23:22.679Z,16.10
2018-05-13T09:25:50.133Z,16.10
2018-05-13T09:28:19.803Z,16.30
2018-05-13T09:30:53.987Z,16.40
2018-05-13T09:33:24.021Z,16.40
2018-05-13T09:35:55.107Z,16.60
2018-05-13T09:38:23.333Z,17.50
2018-05-13T09:40:51.297Z,17.50
2018-05-13T09:43:18.771Z,18.40
2018-05-13T09:45:46.241Z,19.30
2018-05-13T09:48:13.651Z,20.30
2018-05-13T09:50:41.108Z,21.00
2018-05-13T09:53:08.553Z,21.60
2018-05-13T09:55:36.006Z,22.20
2018-05-13T09:58:03.449Z,22.30
2018-05-13T10:00:31.666Z,22.90
2018-05-13T10:02:59.101Z,22.90
2018-05-13T10:05:26.549Z,22.90
2018-05-13T10:07:54.001Z,22.90
2018-05-13T10:10:21.457Z,22.60
2018-05-13T10:12:49.680Z,22.60
2018-05-13T10:15:17.150Z,22.60
2018-05-13T10:17:44.634Z,22.60
2018-05-13T10:20:12.852Z,22.70
2018-05-13T10:22:40.312Z,22.70
2018-05-13T10:25:07.773Z,22.40
2018-05-13T10:27:35.215Z,22.20
2018-05-13T10:30:02.693Z,21.70
2018-05-13T10:32:30.137Z,21.70
2018-05-13T10:34:57.603Z,21.60
2018-05-13T10:37:25.674Z,21.50
2018-05-13T10:39:53.121Z,21.70
2018-05-13T10:42:20.845Z,21.70
2018-05-13T10:44:48.283Z,21.60
2018-05-13T10:47:15.718Z,21.80
2018-05-13T10:49:43.170Z,22.10
2018-05-13T10:52:10.622Z,22.10
2018-05-13T10:54:38.117Z,21.90
2018-05-13T10:57:05.562Z,22.00
2018-05-13T10:59:33.038Z,22.30
2018-05-13T11:02:02.826Z,21.40
2018-05-13T11:04:30.285Z,21.40
2018-05-13T11:06:57.744Z,21.40
2018-05-13T11:09:25.190Z,21.50
2018-05-13T11:11:52.651Z,21.50
2018-05-13T11:14:20.082Z,21.50
2018-05-13T11:16:47.546Z,21.60
2018-05-13T11:19:15.002Z,21.80
2018-05-13T11:21:42.467Z,22.10
2018-05-13T11:24:09.960Z,22.50
2018-05-13T11:26:37.417Z,22.50
2018-05-13T11:29:04.867Z,22.60
2018-05-13T11:31:33.440Z,22.60
2018-05-13T11:34:00.894Z,23.10
2018-05-13T11:36:28.433Z,24.20
2018-05-13T11:38:55.875Z,24.80
2018-05-13T11:41:23.333Z,24.00
2018-05-13T11:43:50.786Z,24.20
2018-05-13T11:46:18.243Z,24.10
2018-05-13T11:48:45.720Z,23.90
2018-05-13T11:51:13.184Z,23.80
2018-05-13T11:53:41.395Z,24.00
2018-05-13T11:56:09.606Z,24.40
2018-05-13T11:58:37.334Z,24.30
2018-05-13T12:01:05.571Z,24.40
2018-05-13T12:03:33.005Z,24.40
2018-05-13T12:06:00.470Z,23.90
2018-05-13T12:08:27.915Z,24.20
2018-05-13T12:10:55.374Z,24.70
2018-05-13T12:13:22.834Z,25.20
2018-05-13T12:15:50.274Z,25.30
2018-05-13T12:18:17.730Z,26.00
2018-05-13T12:20:45.202Z,26.50
2018-05-13T12:23:12.652Z,26.90
2018-05-13T12:25:40.102Z,27.10
2018-05-13T12:28:07.549Z,26.50
2018-05-13T12:30:35.886Z,26.60
2018-05-13T12:33:03.358Z,27.00
2018-05-13T12:35:30.933Z,27.40
2018-05-13T12:37:59.168Z,28.00
2018-05-13T12:40:26.602Z,27.90
2018-05-13T12:42:54.061Z,27.60
2018-05-13T12:45:21.553Z,27.50
2018-05-13T12:47:48.988Z,28.00
2018-05-13T12:50:16.484Z,28.00
2018-05-13T12:52:43.926Z,27.50
2018-05-13T12:55:11.723Z,27.10
2018-05-13T12:57:39.946Z,27.20
2018-05-13T13:00:07.397Z,27.20
2018-05-13T13:02:34.846Z,27.00
2018-05-13T13:05:02.291Z,26.40
2018-05-13T13:07:30.595Z,26.10
2018-05-13T13:09:58.043Z,26.30
2018-05-13T13:12:25.484Z,26.50
2018-05-13T13:14:52.942Z,26.60
2018-05-13T13:17:20.382Z,26.90
2018-05-13T13:19:47.842Z,27.30
2018-05-13T13:22:15.365Z,27.00
2018-05-13T13:24:43.501Z,25.50
2018-05-13T13:27:10.953Z,25.40
2018-05-13T13:29:38.397Z,25.20
2018-05-13T13:32:05.845Z,24.50
2018-05-13T13:34:33.289Z,24.20
2018-05-13T13:37:00.752Z,24.50
2018-05-13T13:39:28.962Z,24.80
2018-05-13T13:41:56.414Z,24.80
2018-05-13T13:44:24.749Z,25.00
2018-05-13T13:46:52.993Z,25.30
2018-05-13T13:49:20.443Z,25.20
2018-05-13T13:51:47.886Z,25.30
2018-05-13T13:54:15.356Z,25.00
2018-05-13T13:56:42.793Z,25.00
2018-05-13T13:59:10.238Z,25.00
2018-05-13T14:01:37.701Z,25.30
2018-05-13T14:04:05.150Z,25.50
2018-05-13T14:06:32.604Z,25.80
2018-05-13T14:09:00.884Z,25.40
2018-05-13T14:11:28.343Z,24.60
2018-05-13T14:13:55.803Z,24.50
2018-05-13T14:16:23.535Z,24.20
2018-05-13T14:18:51.761Z,24.70
2018-05-13T14:21:19.206Z,24.70
2018-05-13T14:23:46.748Z,24.80
2018-05-13T14:26:14.123Z,25.00
2018-05-13T14:28:41.574Z,25.50
2018-05-13T14:31:09.029Z,25.80
2018-05-13T14:33:36.490Z,25.50
2018-05-13T14:36:03.949Z,25.30
2018-05-13T14:38:31.408Z,25.10
2018-05-13T14:40:58.950Z,25.10
2018-05-13T14:43:26.306Z,25.20
2018-05-13T14:45:53.779Z,24.90
2018-05-13T14:48:21.227Z,24.50
2018-05-13T14:50:48.683Z,24.20
2018-05-13T14:53:16.136Z,24.10
2018-05-13T14:55:44.515Z,23.90
2018-05-13T14:58:12.064Z,23.80
2018-05-13T15:00:39.431Z,23.60
2018-05-13T15:03:07.578Z,23.50
2018-05-13T15:05:35.788Z,23.00
2018-05-13T15:08:03.250Z,23.00
2018-05-13T15:10:30.749Z,22.80
2018-05-13T15:12:58.142Z,22.90
2018-05-13T15:15:25.603Z,22.70
2018-05-13T15:17:54.718Z,22.60
2018-05-13T15:20:22.213Z,22.50
2018-05-13T15:22:49.670Z,22.20
2018-05-13T15:25:17.105Z,21.80
2018-05-13T15:27:44.583Z,21.40
2018-05-13T15:30:12.056Z,21.40
2018-05-13T15:32:39.501Z,21.20
2018-05-13T15:35:07.770Z,21.00
2018-05-13T15:37:35.207Z,21.00
2018-05-13T15:40:02.659Z,21.00
2018-05-13T15:42:30.165Z,21.00
2018-05-13T15:44:57.588Z,20.60
2018-05-13T15:47:25.064Z,20.60
2018-05-13T15:49:53.275Z,20.70
2018-05-13T15:52:20.735Z,20.70
2018-05-13T15:54:48.269Z,20.70
2018-05-13T15:57:16.415Z,20.60
2018-05-13T15:59:43.877Z,20.60
2018-05-13T16:02:12.411Z,20.40
2018-05-13T16:04:41.206Z,20.30
2018-05-13T16:07:08.661Z,20.10
2018-05-13T16:09:36.115Z,20.10
2018-05-13T16:12:03.675Z,19.80
2018-05-13T16:14:31.019Z,19.60
2018-05-13T16:16:58.480Z,19.30
2018-05-13T16:19:25.935Z,19.30
2018-05-13T16:21:53.394Z,19.30
2018-05-13T16:24:21.082Z,19.30
2018-05-13T16:26:48.531Z,19.30
2018-05-13T16:29:15.976Z,19.20
2018-05-13T16:31:43.782Z,18.80
2018-05-13T16:34:11.214Z,18.60
2018-05-13T16:36:38.659Z,18.30
2018-05-13T16:39:06.125Z,18.10
2018-05-13T16:41:33.580Z,18.00
2018-05-13T16:44:01.039Z,17.90
2018-05-13T16:46:28.490Z,17.90
2018-05-13T16:48:55.958Z,17.70
2018-05-13T16:51:23.398Z,17.60
2018-05-13T16:53:50.897Z,17.70
2018-05-13T16:56:18.366Z,17.80
2018-05-13T16:58:46.616Z,17.80
2018-05-13T17:01:14.065Z,17.70
2018-05-13T17:03:41.519Z,17.50
2018-05-13T17:06:08.983Z,17.20
2018-05-13T17:08:36.439Z,17.20
2018-05-13T17:11:03.914Z,17.20
2018-05-13T17:13:31.387Z,17.30
2018-05-13T17:15:59.610Z,17.50
2018-05-13T17:18:27.052Z,17.50
2018-05-13T17:20:54.517Z,17.60
2018-05-13T17:23:21.990Z,17.70
2018-05-13T17:25:49.444Z,17.60
2018-05-13T17:28:16.881Z,17.50
2018-05-13T17:30:45.295Z,17.40
2018-05-13T17:33:12.743Z,17.40
2018-05-13T17:35:40.214Z,17.30
2018-05-13T17:38:07.667Z,17.40
2018-05-13T17:40:35.114Z,17.40
2018-05-13T17:43:03.326Z,17.50
2018-05-13T17:45:30.703Z,17.40
2018-05-13T17:47:58.178Z,17.20
2018-05-13T17:50:25.615Z,17.00
2018-05-13T17:52:53.067Z,16.70
2018-05-13T17:55:21.288Z,16.80
2018-05-13T17:57:48.738Z,16.70
2018-05-13T18:00:16.951Z,16.90
2018-05-13T18:02:45.175Z,17.00
2018-05-13T18:05:12.631Z,17.00
2018-05-13T18:07:40.088Z,17.00
2018-05-13T18:10:07.594Z,16.80
2018-05-13T18:12:35.062Z,16.60
2018-05-13T18:15:03.290Z,16.30
2018-05-13T18:17:30.742Z,16.30
2018-05-13T18:19:58.204Z,16.30
2018-05-13T18:22:25.660Z,16.40
2018-05-13T18:24:53.282Z,16.50
2018-05-13T18:27:20.683Z,16.50
2018-05-13T18:29:48.131Z,16.40
2018-05-13T18:32:15.598Z,16.30
2018-05-13T18:34:43.071Z,16.30
2018-05-13T18:37:10.555Z,16.40
2018-05-13T18:39:38.778Z,16.40
2018-05-13T18:42:06.244Z,16.40
2018-05-13T18:44:33.770Z,16.40
2018-05-13T18:47:01.195Z,16.40
2018-05-13T18:49:29.780Z,16.30
2018-05-13T18:51:58.173Z,16.30
2018-05-13T18:54:25.744Z,16.30
2018-05-13T18:56:53.121Z,16.30
2018-05-13T18:59:20.656Z,16.30
2018-05-13T19:01:48.109Z,16.20
2018-05-13T19:04:15.574Z,16.10
2018-05-13T19:06:43.037Z,16.00
2018-05-13T19:09:10.500Z,15.90
2018-05-13T19:11:37.958Z,15.80
2018-05-13T19:14:05.415Z,15.70
2018-05-13T19:16:32.886Z,15.60
2018-05-13T19:19:00.389Z,15.50
2018-05-13T19:21:27.814Z,15.50
2018-05-13T19:23:55.338Z,15.50
2018-05-13T19:26:22.808Z,15.60
2018-05-13T19:28:50.265Z,15.60
2018-05-13T19:31:17.721Z,15.70
2018-05-13T19:33:45.174Z,15.80
2018-05-13T19:36:12.639Z,15.80
2018-05-13T19:38:40.126Z,15.80
2018-05-13T19:41:07.583Z,15.60
2018-05-13T19:43:35.052Z,15.70
2018-05-13T19:46:03.860Z,15.80
2018-05-13T19:48:33.038Z,15.90
2018-05-13T19:51:00.698Z,15.90
2018-05-13T19:53:28.208Z,15.70
2018-05-13T19:55:55.674Z,15.30
2018-05-13T19:58:23.137Z,15.10
2018-05-13T20:00:50.614Z,14.90
2018-05-13T20:03:18.140Z,14.90
2018-05-13T20:05:45.528Z,14.90
2018-05-13T20:08:12.988Z,14.80
2018-05-13T20:10:40.447Z,14.80
2018-05-13T20:13:07.924Z,14.90
2018-05-13T20:15:36.238Z,14.90
2018-05-13T20:18:04.271Z,14.80
2018-05-13T20:20:32.486Z,15.10
2018-05-13T20:23:11.895Z,15.10
2018-05-13T20:25:40.123Z,15.20
2018-05-13T20:28:07.573Z,15.20
2018-05-13T20:30:35.147Z,15.00
2018-05-13T20:33:02.994Z,15.00
2018-05-13T20:35:30.452Z,15.10
2018-05-13T20:37:57.911Z,15.00
2018-05-13T20:40:25.359Z,15.00
2018-05-13T20:42:52.826Z,14.90
2018-05-13T20:45:20.278Z,14.70
2018-05-13T20:47:47.744Z,14.70
2018-05-13T20:50:15.202Z,14.70
2018-05-13T20:52:43.608Z,14.90
2018-05-13T20:55:11.343Z,15.10
2018-05-13T20:57:38.787Z,15.20
2018-05-13T21:00:06.243Z,15.10
2018-05-13T21:02:33.700Z,15.10
2018-05-13T21:05:01.154Z,15.10
2018-05-13T21:07:29.425Z,15.20
2018-05-13T21:09:56.883Z,15.20
2018-05-13T21:12:24.355Z,15.20
2018-05-13T21:14:52.291Z,15.10
2018-05-13T21:17:19.746Z,15.10
2018-05-13T21:19:47.242Z,15.00
2018-05-13T21:22:14.688Z,15.10
2018-05-13T21:24:42.138Z,15.00
2018-05-13T21:27:09.611Z,14.90
2018-05-13T21:29:37.080Z,14.90
2018-05-13T21:32:04.534Z,14.90
2018-05-13T21:34:32.065Z,15.00
2018-05-13T21:36:59.465Z,15.00
2018-05-13T21:39:27.704Z,14.90
2018-05-13T21:41:55.173Z,14.90
2018-05-13T21:44:22.611Z,14.80
2018-05-13T21:46:50.070Z,14.70
2018-05-13T21:49:17.510Z,14.70
2018-05-13T21:51:44.959Z,14.60
2018-05-13T21:54:12.417Z,14.60
2018-05-13T21:56:40.631Z,14.60
2018-05-13T21:59:08.090Z,14.60
2018-05-13T22:01:35.547Z,14.70
2018-05-13T22:04:03.018Z,14.70
2018-05-13T22:06:30.454Z,14.80
2018-05-13T22:08:58.760Z,14.80
2018-05-13T22:11:26.215Z,14.80
2018-05-13T22:13:53.672Z,14.90
2018-05-13T22:16:21.115Z,14.90
2018-05-13T22:18:48.566Z,14.90
2018-05-13T22:21:16.030Z,14.90
2018-05-13T22:23:43.894Z,14.90
2018-05-13T22:26:11.346Z,14.90
2018-05-13T22:28:38.796Z,14.90
2018-05-13T22:31:06.258Z,14.90
2018-05-13T22:33:33.715Z,15.00
2018-05-13T22:36:01.171Z,14.90
2018-05-13T22:38:28.627Z,15.00
2018-05-13T22:40:56.095Z,15.00
2018-05-13T22:43:23.555Z,15.00
2018-05-13T22:45:51.018Z,15.00
2018-05-13T22:48:19.244Z,14.90
2018-05-13T22:50:46.698Z,14.80
2018-05-13T22:53:14.171Z,14.80
2018-05-13T22:55:41.635Z,14.90
2018-05-13T22:58:09.204Z,14.80
2018-05-13T23:00:36.667Z,14.80
2018-05-13T23:03:04.137Z,14.70
2018-05-13T23:05:31.671Z,14.60
2018-05-13T23:07:59.038Z,14.60
2018-05-13T23:10:26.486Z,14.60
2018-05-13T23:12:53.955Z,14.60
2018-05-13T23:15:21.431Z,14.60
2018-05-13T23:17:48.872Z,14.60
2018-05-13T23:20:16.342Z,14.60
2018-05-13T23:22:43.786Z,14.60
2018-05-13T23:25:11.238Z,14.50
2018-05-13T23:27:38.687Z,14.60
2018-05-13T23:30:06.168Z,14.60
2018-05-13T23:32:33.621Z,14.70
2018-05-13T23:35:01.754Z,14.70
2018-05-13T23:37:29.206Z,14.60
2018-05-13T23:39:57.171Z,14.50
2018-05-13T23:42:24.617Z,14.40
2018-05-13T23:44:52.837Z,14.50
2018-05-13T23:47:21.056Z,14.60
2018-05-13T23:49:49.270Z,14.70
2018-05-13T23:52:16.747Z,14.70
2018-05-13T23:54:44.196Z,14.70
2018-05-13T23:57:11.659Z,14.60
2018-05-13T23:59:39.111Z,14.60
